createdAt,value
2018-05-15T00:04:36.763Z,19.28
2018-05-15T00:09:38.879Z,19.23
2018-05-15T00:14:40.196Z,19.09
2018-05-15T00:19:41.590Z,18.90
2018-05-15T00:24:42.882Z,18.83
2018-05-15T00:29:44.183Z,18.69
2018-05-15T00:34:46.216Z,18.53
2018-05-15T00:39:47.526Z,18.34
2018-05-15T00:44:48.853Z,18.32
2018-05-15T00:49:50.150Z,18.35
2018-05-15T01:00:38.590Z,18.09
2018-05-15T01:05:39.897Z,17.93
2018-05-15T01:10:41.950Z,17.82
2018-05-15T01:15:43.244Z,17.63
2018-05-15T01:20:44.549Z,17.57
2018-05-15T01:25:45.923Z,17.54
2018-05-15T01:30:47.921Z,17.50
2018-05-15T01:35:49.217Z,17.33
2018-05-15T01:40:50.510Z,17.16
2018-05-15T01:45:51.830Z,17.20
2018-05-15T01:50:53.141Z,17.15
2018-05-15T01:55:55.189Z,17.11
2018-05-15T02:00:56.477Z,17.17
2018-05-15T02:05:57.828Z,17.16
2018-05-15T02:10:59.877Z,17.06
2018-05-15T02:16:01.194Z,16.98
2018-05-15T02:21:02.512Z,16.91
2018-05-15T02:26:04.634Z,17.05
2018-05-15T02:31:05.970Z,17.12
2018-05-15T02:36:07.290Z,17.12
2018-05-15T02:41:09.345Z,17.02
2018-05-15T02:46:10.675Z,16.91
2018-05-15T02:51:11.991Z,16.82
2018-05-15T02:56:13.294Z,16.81
2018-05-15T03:01:14.584Z,16.78
2018-05-15T03:06:15.929Z,16.80
2018-05-15T03:11:17.231Z,16.75
2018-05-15T03:16:19.282Z,16.60
2018-05-15T03:21:20.587Z,16.56
2018-05-15T03:26:21.906Z,16.50
2018-05-15T03:31:23.214Z,16.63
2018-05-15T03:36:24.509Z,16.39
2018-05-15T03:41:25.858Z,16.53
2018-05-15T03:46:27.175Z,16.50
2018-05-15T03:51:29.270Z,16.45
2018-05-15T03:56:30.578Z,16.56
2018-05-15T04:01:51.125Z,16.55
2018-05-15T04:07:11.535Z,16.41
2018-05-15T04:12:12.825Z,16.51
2018-05-15T04:17:14.105Z,16.37
2018-05-15T04:22:15.498Z,16.50
2018-05-15T04:27:17.193Z,16.58
2018-05-15T04:32:19.277Z,16.62
2018-05-15T04:37:21.473Z,16.80
2018-05-15T04:42:22.813Z,16.83
2018-05-15T04:47:25.810Z,17.06
2018-05-15T04:52:27.178Z,17.08
2018-05-15T04:57:28.485Z,17.21
2018-05-15T05:02:29.848Z,16.96
2018-05-15T05:07:31.183Z,17.23
2018-05-15T05:12:32.486Z,17.37
2018-05-15T05:17:34.562Z,17.70
2018-05-15T05:22:35.974Z,18.00
2018-05-15T05:27:37.382Z,18.18
2018-05-15T05:32:39.442Z,18.51
2018-05-15T05:37:40.763Z,18.84
2018-05-15T05:42:42.078Z,18.86
2018-05-15T05:47:44.121Z,19.07
2018-05-15T05:52:45.418Z,19.28
2018-05-15T05:57:46.734Z,19.25
2018-05-15T06:02:48.058Z,19.29
2018-05-15T06:07:49.388Z,19.59
2018-05-15T06:12:50.704Z,19.67
2018-05-15T06:17:52.046Z,19.91
2018-05-15T06:22:53.338Z,20.01
2018-05-15T06:27:54.658Z,20.37
2018-05-15T06:32:55.970Z,20.34
2018-05-15T06:37:57.999Z,20.38
2018-05-15T06:42:59.309Z,20.49
2018-05-15T06:48:00.606Z,20.64
2018-05-15T06:53:01.995Z,20.92
2018-05-15T06:58:03.247Z,20.99
2018-05-15T07:03:04.569Z,21.01
2018-05-15T07:08:05.894Z,21.39
2018-05-15T07:13:07.218Z,21.69
2018-05-15T07:18:08.534Z,21.61
2018-05-15T07:23:09.865Z,21.49
2018-05-15T07:28:11.162Z,21.63
2018-05-15T07:33:13.266Z,22.03
2018-05-15T07:38:14.523Z,22.27
2018-05-15T07:43:15.827Z,22.46
2018-05-15T07:48:17.903Z,22.45
2018-05-15T07:53:19.233Z,22.78
2018-05-15T07:58:20.538Z,22.81
2018-05-15T08:03:22.613Z,22.92
2018-05-15T08:08:23.913Z,23.10
2018-05-15T08:13:25.229Z,23.59
2018-05-15T08:18:27.292Z,23.49
2018-05-15T08:23:28.594Z,23.63
2018-05-15T08:28:29.905Z,24.06
2018-05-15T08:33:31.945Z,24.23
2018-05-15T08:38:33.254Z,24.59
2018-05-15T08:43:34.570Z,24.52
2018-05-15T08:48:37.681Z,24.30
2018-05-15T08:53:39.023Z,24.76
2018-05-15T08:58:41.057Z,24.83
2018-05-15T09:03:42.386Z,24.90
2018-05-15T09:08:43.701Z,25.13
2018-05-15T09:13:45.750Z,25.51
2018-05-15T09:18:47.082Z,25.55
2018-05-15T09:23:49.187Z,26.16
2018-05-15T09:28:51.252Z,26.77
2018-05-15T09:33:52.767Z,27.03
2018-05-15T09:38:54.078Z,27.47
2018-05-15T09:43:56.154Z,27.42
2018-05-15T09:48:57.469Z,27.78
2018-05-15T09:53:59.522Z,27.68
2018-05-15T09:59:00.833Z,27.62
2018-05-15T10:04:02.174Z,27.30
2018-05-15T10:09:03.513Z,27.08
2018-05-15T10:14:04.919Z,26.78
2018-05-15T10:19:06.926Z,26.53
2018-05-15T10:24:08.243Z,26.57
2018-05-15T10:29:10.294Z,26.59
2018-05-15T10:34:11.612Z,27.01
2018-05-15T10:39:12.947Z,27.00
2018-05-15T10:44:14.254Z,27.64
2018-05-15T10:49:15.573Z,27.86
2018-05-15T10:54:16.878Z,27.46
2018-05-15T10:59:18.929Z,27.88
2018-05-15T11:04:20.244Z,28.33
2018-05-15T11:09:21.555Z,28.51
2018-05-15T11:14:22.858Z,28.21
2018-05-15T11:19:43.290Z,28.05
2018-05-15T11:24:51.217Z,27.85
2018-05-15T11:29:52.518Z,27.89
2018-05-15T11:34:53.834Z,28.02
2018-05-15T11:39:55.141Z,28.08
2018-05-15T11:44:56.443Z,27.90
2018-05-15T11:49:58.400Z,27.75
2018-05-15T11:54:59.856Z,27.80
2018-05-15T12:00:01.353Z,27.60
2018-05-15T12:05:02.553Z,27.56
2018-05-15T12:10:03.874Z,27.55
2018-05-15T12:15:05.278Z,27.65
2018-05-15T12:20:06.526Z,27.95
2018-05-15T12:25:07.822Z,27.83
2018-05-15T12:30:09.885Z,27.95
2018-05-15T12:35:11.178Z,27.42
2018-05-15T12:40:12.495Z,27.45
2018-05-15T12:45:13.810Z,27.45
2018-05-15T12:50:15.862Z,27.85
2018-05-15T12:55:17.185Z,28.08
2018-05-15T13:00:18.516Z,28.33
2018-05-15T13:05:19.862Z,28.26
2018-05-15T13:10:21.191Z,28.39
2018-05-15T13:15:22.521Z,28.39
2018-05-15T13:20:23.838Z,28.91
2018-05-15T13:25:25.888Z,28.85
2018-05-15T13:30:27.182Z,29.40
2018-05-15T13:35:28.582Z,29.49
2018-05-15T13:40:30.576Z,29.31
2018-05-15T13:45:31.898Z,28.98
2018-05-15T13:50:33.247Z,28.85
2018-05-15T13:55:35.250Z,28.19
2018-05-15T14:00:36.545Z,28.39
2018-05-15T14:05:37.886Z,28.48
2018-05-15T14:10:39.917Z,27.96
2018-05-15T14:15:41.220Z,28.44
2018-05-15T14:20:42.526Z,28.54
2018-05-15T14:25:43.843Z,28.91
2018-05-15T14:30:45.155Z,29.36
2018-05-15T14:35:46.466Z,29.69
2018-05-15T14:40:47.845Z,29.79
2018-05-15T14:45:49.178Z,29.29
2018-05-15T14:56:50.793Z,28.04
2018-05-15T15:01:52.111Z,28.11
2018-05-15T15:06:53.466Z,28.34
2018-05-15T15:11:55.532Z,28.40
2018-05-15T15:16:56.839Z,28.77
2018-05-15T15:21:58.138Z,28.42
2018-05-15T15:26:59.431Z,28.29
2018-05-15T15:32:01.564Z,28.36
2018-05-15T15:37:02.801Z,28.42
2018-05-15T15:42:04.110Z,28.28
2018-05-15T15:47:05.428Z,28.20
2018-05-15T15:52:06.795Z,28.48
2018-05-15T15:57:08.866Z,28.62
2018-05-15T16:02:10.199Z,28.30
2018-05-15T16:07:12.266Z,28.13
2018-05-15T16:12:13.726Z,28.40
2018-05-15T16:17:15.070Z,28.51
2018-05-15T16:22:16.510Z,28.60
2018-05-15T16:27:18.006Z,28.40
2018-05-15T16:32:19.375Z,28.40
2018-05-15T16:37:20.710Z,27.78
2018-05-15T16:42:22.043Z,27.35
2018-05-15T16:47:24.168Z,27.33
2018-05-15T16:52:25.427Z,27.06
2018-05-15T16:57:27.477Z,27.11
2018-05-15T17:02:28.785Z,26.91
2018-05-15T17:07:30.107Z,26.81
2018-05-15T17:12:32.172Z,26.79
2018-05-15T17:17:33.470Z,26.87
2018-05-15T17:22:34.771Z,26.86
2018-05-15T17:27:36.264Z,26.88
2018-05-15T17:32:38.170Z,26.94
2018-05-15T17:37:39.558Z,26.82
2018-05-15T17:42:40.891Z,26.64
2018-05-15T17:47:43.179Z,26.51
2018-05-15T17:52:44.649Z,26.38
2018-05-15T17:57:45.925Z,26.47
2018-05-15T18:02:48.274Z,26.24
2018-05-15T18:07:49.822Z,26.24
2018-05-15T18:12:51.406Z,26.09
2018-05-15T18:17:53.664Z,26.11
2018-05-15T18:22:55.350Z,26.00
2018-05-15T18:27:56.797Z,25.81
2018-05-15T18:32:58.164Z,25.68
2018-05-15T18:38:00.009Z,25.40
2018-05-15T18:43:01.362Z,25.08
2018-05-15T18:48:02.698Z,24.83
2018-05-15T18:53:04.368Z,24.75
2018-05-15T18:58:05.886Z,24.58
2018-05-15T19:03:07.235Z,24.63
2018-05-15T19:08:08.829Z,24.46
2018-05-15T19:13:10.378Z,24.10
2018-05-15T19:18:11.698Z,23.78
2018-05-15T19:23:13.805Z,23.19
2018-05-15T19:28:16.547Z,23.06
2018-05-15T19:33:24.094Z,23.05
2018-05-15T19:38:25.551Z,23.12
2018-05-15T19:43:26.875Z,23.09
2018-05-15T19:48:28.197Z,22.95
2018-05-15T19:53:29.530Z,22.93
2018-05-15T19:58:31.640Z,22.90
2018-05-15T20:03:34.239Z,23.08
2018-05-15T20:08:35.663Z,22.86
2018-05-15T20:13:37.089Z,23.12
2018-05-15T20:18:38.481Z,23.17
2018-05-15T20:23:40.551Z,22.75
2018-05-15T20:28:42.672Z,22.65
2018-05-15T20:33:44.021Z,22.27
2018-05-15T20:38:45.974Z,22.26
2018-05-15T20:43:47.337Z,22.05
2018-05-15T20:48:49.772Z,21.77
2018-05-15T20:53:51.760Z,21.69
2018-05-15T20:58:54.103Z,21.85
2018-05-15T21:03:57.141Z,21.88
2018-05-15T21:08:59.809Z,21.65
2018-05-15T21:14:01.950Z,21.54
2018-05-15T21:19:04.078Z,20.96
2018-05-15T21:24:06.726Z,20.89
2018-05-15T21:29:08.661Z,20.88
2018-05-15T21:34:10.399Z,20.90
2018-05-15T21:39:11.750Z,21.01
2018-05-15T21:44:15.544Z,20.82
2018-05-15T21:49:17.490Z,20.76
2018-05-15T21:54:19.567Z,20.78
2018-05-15T21:59:21.816Z,20.85
2018-05-15T22:04:23.956Z,20.62
2018-05-15T22:09:26.364Z,19.87
2018-05-15T22:14:46.198Z,19.71
2018-05-15T22:20:06.134Z,19.42
2018-05-15T22:25:07.450Z,19.15
2018-05-15T22:30:08.770Z,19.18
2018-05-15T22:35:10.815Z,19.33
2018-05-15T22:40:12.138Z,19.50
2018-05-15T22:45:13.466Z,19.48
2018-05-15T22:50:14.973Z,19.45
2018-05-15T22:55:16.294Z,19.49
2018-05-15T23:00:17.598Z,19.58
2018-05-15T23:05:18.945Z,19.60
2018-05-15T23:10:20.266Z,19.70
2018-05-15T23:15:21.622Z,19.80
2018-05-15T23:20:22.946Z,19.78
2018-05-15T23:25:24.246Z,19.71
2018-05-15T23:30:25.555Z,19.73
2018-05-15T23:35:27.629Z,19.41
2018-05-15T23:40:28.954Z,19.40
2018-05-15T23:45:31.021Z,19.49
2018-05-15T23:50:32.376Z,19.31
2018-05-15T23:55:33.685Z,19.09
